createdAt,value
2019-03-19T00:00:19.058Z,2.70
2019-03-19T00:02:46.672Z,2.77
2019-03-19T00:05:14.242Z,2.70
2019-03-19T00:07:41.736Z,2.70
2019-03-19T00:10:09.362Z,2.60
2019-03-19T00:12:36.846Z,2.83
2019-03-19T00:15:04.558Z,2.60
2019-03-19T00:20:06.148Z,2.80
2019-03-19T00:22:33.631Z,2.73
2019-03-19T00:25:11.740Z,2.67
2019-03-19T00:27:39.173Z,2.63
2019-03-19T00:30:07.708Z,3.00
2019-03-19T00:32:35.183Z,2.77
2019-03-19T00:35:02.984Z,2.90
2019-03-19T00:37:30.369Z,2.90
2019-03-19T00:39:57.893Z,3.13
2019-03-19T00:42:25.341Z,2.70
2019-03-19T00:44:52.881Z,3.07
2019-03-19T00:47:20.338Z,3.10
2019-03-19T00:49:47.811Z,2.90
2019-03-19T00:52:16.027Z,2.83
2019-03-19T00:54:43.563Z,2.60
2019-03-19T00:57:30.900Z,2.70
2019-03-19T00:59:58.407Z,2.80
2019-03-19T01:02:25.897Z,3.10
2019-03-19T01:04:53.368Z,2.90
2019-03-19T01:07:20.927Z,2.80
2019-03-19T01:09:49.297Z,3.20
2019-03-19T01:12:16.827Z,3.03
2019-03-19T01:14:44.385Z,2.87
2019-03-19T01:17:12.458Z,2.90
2019-03-19T01:19:40.057Z,2.70
2019-03-19T01:22:09.966Z,3.30
2019-03-19T01:24:37.769Z,2.73
2019-03-19T01:27:05.345Z,3.63
2019-03-19T01:29:32.703Z,2.70
2019-03-19T01:32:00.083Z,2.80
2019-03-19T01:34:27.577Z,2.70
2019-03-19T01:36:55.028Z,2.80
2019-03-19T01:39:22.631Z,2.73
2019-03-19T01:41:51.253Z,2.70
2019-03-19T01:44:19.973Z,2.70
2019-03-19T01:46:47.511Z,2.90
2019-03-19T01:49:37.683Z,2.60
2019-03-19T01:52:24.768Z,2.80
2019-03-19T01:54:52.400Z,2.50
2019-03-19T01:57:19.885Z,3.37
2019-03-19T01:59:47.831Z,2.97
2019-03-19T02:05:43.366Z,2.70
2019-03-19T02:08:30.628Z,2.87
2019-03-19T02:10:58.486Z,3.00
2019-03-19T02:13:28.116Z,2.90
2019-03-19T02:15:55.817Z,3.67
2019-03-19T02:18:26.424Z,2.70
2019-03-19T02:20:53.931Z,2.70
2019-03-19T02:23:21.403Z,2.77
2019-03-19T02:25:48.905Z,2.70
2019-03-19T02:28:16.316Z,2.60
2019-03-19T02:30:43.767Z,3.17
2019-03-19T02:33:11.475Z,2.77
2019-03-19T02:35:39.028Z,2.67
2019-03-19T02:38:06.926Z,2.63
2019-03-19T02:40:34.775Z,2.90
2019-03-19T02:43:02.367Z,2.60
2019-03-19T02:45:29.917Z,2.70
2019-03-19T02:47:57.523Z,2.60
2019-03-19T02:50:25.078Z,2.60
2019-03-19T02:52:52.597Z,2.53
2019-03-19T02:55:20.006Z,3.23
2019-03-19T02:57:47.550Z,2.70
2019-03-19T03:00:14.882Z,2.73
2019-03-19T03:02:42.440Z,2.63
2019-03-19T03:05:10.882Z,2.60
2019-03-19T03:07:38.365Z,2.60
2019-03-19T03:10:06.779Z,2.50
2019-03-19T03:12:34.304Z,2.63
2019-03-19T03:15:01.807Z,3.40
2019-03-19T03:17:29.302Z,3.10
2019-03-19T03:19:56.792Z,3.20
2019-03-19T03:22:24.338Z,3.27
2019-03-19T03:24:51.881Z,3.00
2019-03-19T03:27:19.395Z,2.80
2019-03-19T03:29:46.895Z,2.73
2019-03-19T03:32:14.487Z,3.13
2019-03-19T03:34:42.110Z,3.00
2019-03-19T03:37:09.844Z,2.80
2019-03-19T03:39:37.477Z,2.80
2019-03-19T03:42:05.136Z,2.77
2019-03-19T03:44:32.759Z,3.03
2019-03-19T03:47:00.266Z,3.30
2019-03-19T03:49:27.885Z,3.10
2019-03-19T03:51:55.251Z,3.20
2019-03-19T03:54:22.734Z,3.00
2019-03-19T03:57:01.361Z,3.30
2019-03-19T03:59:19.868Z,3.20
2019-03-19T04:01:47.314Z,3.40
2019-03-19T04:04:14.667Z,3.23
2019-03-19T04:06:42.021Z,3.40
2019-03-19T04:09:09.734Z,3.27
2019-03-19T04:11:37.731Z,3.50
2019-03-19T04:14:05.352Z,4.13
2019-03-19T04:16:32.811Z,3.37
2019-03-19T04:19:00.386Z,3.47
2019-03-19T04:21:27.901Z,3.60
2019-03-19T04:23:55.592Z,3.43
2019-03-19T04:26:23.139Z,3.53
2019-03-19T04:28:52.113Z,3.60
2019-03-19T04:31:19.894Z,3.77
2019-03-19T04:33:47.487Z,3.67
2019-03-19T04:36:15.164Z,3.53
2019-03-19T04:38:42.904Z,3.57
2019-03-19T04:41:10.749Z,4.30
2019-03-19T04:43:38.322Z,4.27
2019-03-19T04:46:06.295Z,3.53
2019-03-19T04:48:33.844Z,4.53
2019-03-19T04:51:04.430Z,4.10
2019-03-19T04:53:31.940Z,3.87
2019-03-19T04:55:59.407Z,3.70
2019-03-19T04:58:26.962Z,4.03
2019-03-19T05:00:54.560Z,3.77
2019-03-19T05:03:22.048Z,4.00
2019-03-19T05:05:49.609Z,4.07
2019-03-19T05:08:24.581Z,4.03
2019-03-19T05:10:52.068Z,4.80
2019-03-19T05:13:19.576Z,4.77
2019-03-19T05:15:47.118Z,4.63
2019-03-19T05:18:14.598Z,4.67
2019-03-19T05:20:42.292Z,4.47
2019-03-19T05:23:15.168Z,4.97
2019-03-19T05:25:42.620Z,4.30
2019-03-19T05:28:10.060Z,5.00
2019-03-19T05:30:37.858Z,4.67
2019-03-19T05:33:05.379Z,6.30
2019-03-19T05:35:42.073Z,5.67
2019-03-19T05:38:17.650Z,5.00
2019-03-19T05:40:45.225Z,5.10
2019-03-19T05:43:14.320Z,5.10
2019-03-19T05:45:41.759Z,4.83
2019-03-19T05:48:37.157Z,5.30
2019-03-19T05:51:17.602Z,5.10
2019-03-19T05:53:42.480Z,5.73
2019-03-19T05:56:10.014Z,5.97
2019-03-19T05:58:37.572Z,5.27
2019-03-19T06:01:05.034Z,5.47
2019-03-19T06:03:32.755Z,5.57
2019-03-19T06:06:03.498Z,5.83
2019-03-19T06:08:52.665Z,5.97
2019-03-19T06:23:27.784Z,5.33
2019-03-19T06:26:05.678Z,6.07
2019-03-19T06:28:35.553Z,5.50
2019-03-19T06:40:31.159Z,6.50
2019-03-19T06:42:58.692Z,5.97
2019-03-19T06:45:26.387Z,5.97
2019-03-19T06:47:53.889Z,5.87
2019-03-19T06:50:21.512Z,6.20
2019-03-19T06:52:49.143Z,6.00
2019-03-19T06:55:16.600Z,6.30
2019-03-19T06:57:44.171Z,6.40
2019-03-19T07:00:14.478Z,6.07
2019-03-19T07:02:42.015Z,5.80
2019-03-19T07:05:09.417Z,5.73
2019-03-19T07:07:39.835Z,5.87
2019-03-19T07:10:08.208Z,6.83
2019-03-19T07:12:35.727Z,5.60
2019-03-19T07:15:08.927Z,6.10
2019-03-19T07:17:36.673Z,6.40
2019-03-19T07:20:04.844Z,6.03
2019-03-19T07:22:32.369Z,5.43
2019-03-19T07:24:59.868Z,5.13
2019-03-19T07:27:27.320Z,5.67
2019-03-19T07:29:54.769Z,5.37
2019-03-19T07:32:22.092Z,6.30
2019-03-19T07:34:49.519Z,5.47
2019-03-19T07:37:16.883Z,5.67
2019-03-19T07:39:44.357Z,5.23
2019-03-19T07:42:11.855Z,6.27
2019-03-19T07:44:39.450Z,5.67
2019-03-19T07:47:07.059Z,5.47
2019-03-19T07:49:35.908Z,7.07
2019-03-19T07:52:03.380Z,6.00
2019-03-19T07:54:30.951Z,5.63
2019-03-19T07:56:59.274Z,6.13
2019-03-19T07:59:26.709Z,5.60
2019-03-19T08:01:54.132Z,6.40
2019-03-19T08:04:21.634Z,6.17
2019-03-19T08:06:49.166Z,5.60
2019-03-19T08:09:16.599Z,5.87
2019-03-19T08:11:43.865Z,6.27
2019-03-19T08:14:11.356Z,6.20
2019-03-19T08:16:38.772Z,6.03
2019-03-19T08:19:06.088Z,6.23
2019-03-19T08:21:33.583Z,5.80
2019-03-19T08:24:01.108Z,6.20
2019-03-19T08:26:28.514Z,6.40
2019-03-19T08:28:56.056Z,6.07
2019-03-19T08:31:24.226Z,6.00
2019-03-19T08:33:51.583Z,5.90
2019-03-19T08:36:19.056Z,5.67
2019-03-19T08:38:46.592Z,6.17
2019-03-19T08:41:14.066Z,7.03
2019-03-19T08:43:41.542Z,6.50
2019-03-19T08:46:09.088Z,7.20
2019-03-19T08:48:37.469Z,6.33
2019-03-19T08:51:05.200Z,6.63
2019-03-19T08:53:32.666Z,6.37
2019-03-19T08:56:01.124Z,6.30
2019-03-19T08:58:28.684Z,6.00
2019-03-19T09:00:56.094Z,6.10
2019-03-19T09:03:23.434Z,6.10
2019-03-19T09:05:50.816Z,6.13
2019-03-19T09:08:18.288Z,5.77
2019-03-19T09:10:45.645Z,5.70
2019-03-19T09:13:13.198Z,6.33
2019-03-19T09:15:42.451Z,5.20
2019-03-19T09:18:10.142Z,6.23
2019-03-19T09:20:37.658Z,5.67
2019-03-19T09:23:05.143Z,5.60
2019-03-19T09:25:32.669Z,6.60
2019-03-19T09:28:01.114Z,5.50
2019-03-19T09:30:28.527Z,6.03
2019-03-19T09:32:58.864Z,6.30
2019-03-19T09:35:31.149Z,5.40
2019-03-19T09:37:59.309Z,5.83
2019-03-19T09:40:27.606Z,5.33
2019-03-19T09:42:55.953Z,5.97
2019-03-19T09:45:43.535Z,5.97
2019-03-19T09:48:47.650Z,6.10
2019-03-19T09:51:13.899Z,5.20
2019-03-19T09:53:42.666Z,5.67
2019-03-19T09:56:31.468Z,5.87
2019-03-19T09:59:27.604Z,6.07
2019-03-19T10:04:42.611Z,6.07
2019-03-19T10:07:16.533Z,5.97
2019-03-19T10:09:46.295Z,5.67
2019-03-19T10:12:18.965Z,6.80
2019-03-19T10:14:55.782Z,6.00
2019-03-19T10:17:25.041Z,5.23
2019-03-19T10:19:53.407Z,5.87
2019-03-19T10:22:42.426Z,6.20
2019-03-19T10:25:16.426Z,4.50
2019-03-19T10:27:45.356Z,5.50
2019-03-19T10:30:19.221Z,5.77
2019-03-19T10:33:06.797Z,5.07
2019-03-19T10:35:35.895Z,5.93
2019-03-19T10:38:06.820Z,5.47
2019-03-19T10:40:39.971Z,5.10
2019-03-19T10:43:10.930Z,5.17
2019-03-19T10:45:38.777Z,3.63
2019-03-19T10:48:09.071Z,3.87
2019-03-19T10:50:36.735Z,3.60
2019-03-19T10:53:04.369Z,5.17
2019-03-19T10:55:51.694Z,4.57
2019-03-19T10:58:19.304Z,4.50
2019-03-19T11:00:49.112Z,4.00
2019-03-19T11:03:16.643Z,3.40
2019-03-19T11:05:44.510Z,3.20
2019-03-19T11:08:14.548Z,4.53
2019-03-19T11:10:48.342Z,3.80
2019-03-19T11:13:42.412Z,5.40
2019-03-19T11:16:40.571Z,3.90
2019-03-19T11:19:36.529Z,4.30
2019-03-19T11:22:15.864Z,3.83
2019-03-19T11:25:13.114Z,3.40
2019-03-19T11:28:58.967Z,3.20
2019-03-19T11:31:45.412Z,3.00
2019-03-19T11:34:12.855Z,2.77
2019-03-19T11:39:56.245Z,4.47
2019-03-19T11:42:48.692Z,3.70
2019-03-19T11:45:25.276Z,3.07
2019-03-19T11:48:00.978Z,4.13
2019-03-19T11:53:51.231Z,3.80
2019-03-19T11:56:18.822Z,3.67
2019-03-19T11:58:58.464Z,4.13
2019-03-19T12:01:26.334Z,4.30
2019-03-19T12:03:56.447Z,3.80
2019-03-19T12:06:24.060Z,3.50
2019-03-19T12:08:51.677Z,3.57
2019-03-19T12:11:39.966Z,3.93
2019-03-19T12:14:10.747Z,3.70
2019-03-19T12:20:53.580Z,3.70
2019-03-19T12:23:40.279Z,4.63
2019-03-19T12:26:05.230Z,3.73
2019-03-19T12:28:39.760Z,4.20
2019-03-19T12:31:02.699Z,4.00
2019-03-19T12:33:40.268Z,5.40
2019-03-19T12:36:25.148Z,4.23
2019-03-19T12:38:52.734Z,4.20
2019-03-19T12:41:20.180Z,5.00
2019-03-19T12:43:47.931Z,3.90
2019-03-19T12:46:15.537Z,3.67
2019-03-19T12:48:43.809Z,3.67
2019-03-19T12:51:11.481Z,4.03
2019-03-19T12:53:39.012Z,3.87
2019-03-19T12:58:56.247Z,3.87
2019-03-19T13:01:30.134Z,3.80
2019-03-19T13:03:58.121Z,4.37
2019-03-19T13:06:36.244Z,3.53
2019-03-19T13:09:06.307Z,3.73
2019-03-19T13:11:33.845Z,4.40
2019-03-19T13:14:05.942Z,4.07
2019-03-19T13:16:33.506Z,2.97
2019-03-19T13:19:01.187Z,3.40
2019-03-19T13:21:32.614Z,2.97
2019-03-19T13:24:00.061Z,3.87
2019-03-19T13:26:27.749Z,3.50
2019-03-19T13:29:07.606Z,3.30
2019-03-19T13:31:35.093Z,3.30
2019-03-19T13:34:02.549Z,3.30
2019-03-19T13:36:30.066Z,3.50
2019-03-19T13:38:57.419Z,3.47
2019-03-19T13:41:25.183Z,3.43
2019-03-19T13:43:52.700Z,3.87
2019-03-19T13:46:20.054Z,5.10
2019-03-19T13:48:47.521Z,4.13
2019-03-19T13:51:14.941Z,3.60
2019-03-19T13:53:42.864Z,4.53
2019-03-19T13:56:10.444Z,3.90
2019-03-19T14:02:15.384Z,3.90
2019-03-19T14:04:42.906Z,3.33
2019-03-19T14:07:10.394Z,4.57
2019-03-19T14:09:37.830Z,4.17
2019-03-19T14:12:05.369Z,5.20
2019-03-19T14:14:34.934Z,3.80
2019-03-19T14:17:02.376Z,3.90
2019-03-19T14:19:29.870Z,4.03
2019-03-19T14:21:57.323Z,5.80
2019-03-19T14:24:24.791Z,4.73
2019-03-19T14:26:52.222Z,3.20
2019-03-19T14:29:19.660Z,4.30
2019-03-19T14:31:47.064Z,4.50
2019-03-19T14:34:14.525Z,4.00
2019-03-19T14:36:41.983Z,4.03
2019-03-19T14:39:09.444Z,3.17
2019-03-19T14:41:36.926Z,3.37
2019-03-19T14:44:04.374Z,3.53
2019-03-19T14:46:31.714Z,4.77
2019-03-19T14:48:59.162Z,3.83
2019-03-19T14:51:26.608Z,4.53
2019-03-19T14:53:54.395Z,3.20
2019-03-19T14:56:21.770Z,2.97
2019-03-19T14:58:49.222Z,4.17
2019-03-19T15:01:19.955Z,3.30
2019-03-19T15:03:47.634Z,3.03
2019-03-19T15:06:14.890Z,3.93
2019-03-19T15:08:42.364Z,3.10
2019-03-19T15:11:13.022Z,3.87
2019-03-19T15:13:40.431Z,3.37
2019-03-19T15:16:07.913Z,4.57
2019-03-19T15:18:35.409Z,3.40
2019-03-19T15:21:02.873Z,4.00
2019-03-19T15:23:31.046Z,4.53
2019-03-19T15:25:59.392Z,4.43
2019-03-19T15:28:26.876Z,4.00
2019-03-19T15:30:54.323Z,3.63
2019-03-19T15:33:22.631Z,4.87
2019-03-19T15:35:50.090Z,4.73
2019-03-19T15:38:17.937Z,4.60
2019-03-19T15:40:45.538Z,3.97
2019-03-19T15:43:12.968Z,4.87
2019-03-19T15:45:40.342Z,4.37
2019-03-19T15:48:07.625Z,4.53
2019-03-19T15:50:35.207Z,4.97
2019-03-19T15:53:02.567Z,4.73
2019-03-19T15:55:30.033Z,4.00
2019-03-19T15:57:57.399Z,3.90
2019-03-19T16:00:24.836Z,4.30
2019-03-19T16:02:52.348Z,4.47
2019-03-19T16:05:19.848Z,4.50
2019-03-19T16:07:47.385Z,4.43
2019-03-19T16:10:14.827Z,4.87
2019-03-19T16:12:42.188Z,4.43
2019-03-19T16:15:11.117Z,4.20
2019-03-19T16:17:38.478Z,4.17
2019-03-19T16:20:07.973Z,4.57
2019-03-19T16:22:35.509Z,5.30
2019-03-19T16:25:03.038Z,4.40
2019-03-19T16:27:30.541Z,5.03
2019-03-19T16:29:58.308Z,5.63
2019-03-19T16:32:25.733Z,4.87
2019-03-19T16:34:55.181Z,4.33
2019-03-19T16:37:22.659Z,5.00
2019-03-19T16:39:50.179Z,4.47
2019-03-19T16:42:17.564Z,4.67
2019-03-19T16:44:44.994Z,4.50
2019-03-19T16:47:12.648Z,5.03
2019-03-19T16:49:40.062Z,5.03
2019-03-19T16:52:07.464Z,4.73
2019-03-19T16:54:35.086Z,4.23
2019-03-19T16:57:02.531Z,5.37
2019-03-19T16:59:29.990Z,4.73
2019-03-19T17:02:01.868Z,3.57
2019-03-19T17:04:27.291Z,5.67
2019-03-19T17:06:54.748Z,5.27
2019-03-19T17:09:42.546Z,5.43
2019-03-19T17:12:10.353Z,4.50
2019-03-19T17:14:37.943Z,6.47
2019-03-19T17:17:05.527Z,5.20
2019-03-19T17:19:33.420Z,4.07
2019-03-19T17:22:00.811Z,3.97
2019-03-19T17:24:29.163Z,3.83
2019-03-19T17:26:56.801Z,4.77
2019-03-19T17:29:24.548Z,5.17
2019-03-19T17:31:52.030Z,4.73
2019-03-19T17:34:19.567Z,6.60
2019-03-19T17:36:46.862Z,5.47
2019-03-19T17:39:14.419Z,5.00
2019-03-19T17:41:41.741Z,5.53
2019-03-19T17:44:09.216Z,4.53
2019-03-19T17:46:36.851Z,4.47
2019-03-19T17:49:04.325Z,5.30
2019-03-19T17:51:31.707Z,4.77
2019-03-19T17:53:59.143Z,5.77
2019-03-19T17:56:26.500Z,5.07
2019-03-19T17:58:54.062Z,5.87
2019-03-19T18:01:21.732Z,5.40
2019-03-19T18:03:49.051Z,5.70
2019-03-19T18:06:16.516Z,6.03
2019-03-19T18:08:44.188Z,5.27
2019-03-19T18:11:16.218Z,5.27
2019-03-19T18:13:43.778Z,5.33
2019-03-19T18:16:11.306Z,5.80
2019-03-19T18:18:38.968Z,4.87
2019-03-19T18:21:06.578Z,5.77
2019-03-19T18:23:34.171Z,5.23
2019-03-19T18:26:01.619Z,4.47
2019-03-19T18:28:29.274Z,5.40
2019-03-19T18:30:56.959Z,5.10
2019-03-19T18:33:25.481Z,5.83
2019-03-19T18:35:56.288Z,4.93
2019-03-19T18:38:25.695Z,4.90
2019-03-19T18:40:53.203Z,5.07
2019-03-19T18:43:20.770Z,5.23
2019-03-19T18:45:48.817Z,4.60
2019-03-19T18:48:16.307Z,5.27
2019-03-19T18:50:43.848Z,6.73
2019-03-19T18:53:12.215Z,6.10
2019-03-19T18:55:39.732Z,5.47
2019-03-19T18:58:07.478Z,5.67
2019-03-19T19:00:37.877Z,5.37
2019-03-19T19:03:05.368Z,5.67
2019-03-19T19:05:32.906Z,5.73
2019-03-19T19:08:00.526Z,6.10
2019-03-19T19:10:28.381Z,5.73
2019-03-19T19:12:56.511Z,5.40
2019-03-19T19:15:24.232Z,5.70
2019-03-19T19:17:51.797Z,5.57
2019-03-19T19:20:19.515Z,5.20
2019-03-19T19:22:47.298Z,6.37
2019-03-19T19:25:14.849Z,6.90
2019-03-19T19:27:42.505Z,6.10
2019-03-19T19:30:12.599Z,6.70
2019-03-19T19:32:40.320Z,8.23
2019-03-19T19:35:08.118Z,7.87
2019-03-19T19:37:35.747Z,7.17
2019-03-19T19:42:46.165Z,9.27
2019-03-19T19:45:13.701Z,8.73
2019-03-19T19:47:41.921Z,9.30
2019-03-19T19:50:11.208Z,9.23
2019-03-19T19:52:38.955Z,9.23
2019-03-19T19:55:07.792Z,10.60
2019-03-19T19:57:35.477Z,9.90
2019-03-19T20:00:03.870Z,9.93
2019-03-19T20:02:32.322Z,9.80
2019-03-19T20:08:28.458Z,12.23
2019-03-19T20:10:57.584Z,9.07
2019-03-19T20:13:29.573Z,10.20
2019-03-19T20:15:57.622Z,10.37
2019-03-19T20:31:54.865Z,7.93
2019-03-19T20:59:38.518Z,10.07
2019-03-19T21:02:09.263Z,9.03
2019-03-19T21:04:38.931Z,10.43
2019-03-19T21:07:08.293Z,9.00
